createdAt,value
2018-09-25T00:00:57.102Z,4.93
2018-09-25T00:03:30.645Z,5.10
2018-09-25T00:06:04.168Z,6.93
2018-09-25T00:08:37.768Z,12.23
2018-09-25T00:11:11.571Z,4.13
2018-09-25T00:13:45.052Z,6.80
2018-09-25T00:16:18.502Z,6.00
2018-09-25T00:18:52.598Z,5.70
2018-09-25T00:21:26.130Z,8.07
2018-09-25T00:23:59.574Z,8.27
2018-09-25T00:26:33.096Z,9.20
2018-09-25T00:29:06.738Z,6.87
2018-09-25T00:31:40.436Z,3.90
2018-09-25T00:34:14.012Z,5.80
2018-09-25T00:36:47.613Z,10.65
2018-09-25T00:39:21.882Z,11.87
2018-09-25T00:41:55.330Z,7.73
2018-09-25T00:44:33.094Z,6.20
2018-09-25T00:47:06.819Z,3.27
2018-09-25T00:49:40.446Z,7.37
2018-09-25T00:52:13.923Z,7.50
2018-09-25T00:54:47.565Z,7.07
2018-09-25T00:57:20.996Z,4.40
2018-09-25T00:59:54.662Z,8.03
2018-09-25T01:02:28.216Z,7.27
2018-09-25T01:05:01.920Z,8.47
2018-09-25T01:07:36.075Z,6.07
2018-09-25T01:10:09.944Z,12.33
2018-09-25T01:12:43.446Z,9.87
2018-09-25T01:15:17.470Z,7.43
2018-09-25T01:17:51.220Z,6.30
2018-09-25T01:20:30.637Z,6.27
2018-09-25T01:23:04.897Z,7.15
2018-09-25T01:25:38.982Z,4.75
2018-09-25T01:28:12.773Z,9.10
2018-09-25T01:30:46.350Z,9.50
2018-09-25T01:33:19.918Z,5.42
2018-09-25T01:35:53.448Z,7.33
2018-09-25T01:41:10.787Z,7.83
2018-09-25T01:43:44.358Z,5.95
2018-09-25T01:46:18.302Z,7.35
2018-09-25T01:48:52.048Z,6.77
2018-09-25T01:51:25.498Z,4.28
2018-09-25T01:54:03.393Z,5.47
2018-09-25T01:56:38.468Z,8.03
2018-09-25T01:59:12.208Z,8.68
2018-09-25T02:01:45.863Z,6.17
2018-09-25T02:04:19.861Z,4.80
2018-09-25T02:06:53.326Z,8.50
2018-09-25T02:09:27.130Z,5.28
2018-09-25T02:12:00.627Z,8.70
2018-09-25T02:14:41.121Z,7.33
2018-09-25T02:17:14.843Z,7.57
2018-09-25T02:19:48.400Z,9.43
2018-09-25T02:22:22.513Z,8.83
2018-09-25T02:24:56.274Z,7.37
2018-09-25T02:27:29.820Z,9.73
2018-09-25T02:30:03.322Z,5.87
2018-09-25T02:32:37.050Z,4.33
2018-09-25T02:35:10.526Z,8.38
2018-09-25T02:37:44.137Z,6.87
2018-09-25T02:40:17.724Z,4.83
2018-09-25T02:42:51.449Z,6.22
2018-09-25T02:45:25.056Z,8.25
2018-09-25T02:47:58.530Z,10.78
2018-09-25T02:50:31.979Z,8.45
2018-09-25T02:53:05.526Z,7.10
2018-09-25T02:55:39.172Z,5.62
2018-09-25T02:58:12.749Z,7.50
2018-09-25T03:00:46.239Z,10.55
2018-09-25T03:03:19.871Z,6.40
2018-09-25T03:05:53.331Z,8.03
2018-09-25T03:08:26.870Z,7.30
2018-09-25T03:11:00.520Z,8.55
2018-09-25T03:13:34.049Z,9.85
2018-09-25T03:16:07.746Z,9.65
2018-09-25T03:18:41.251Z,7.08
2018-09-25T03:21:14.859Z,11.85
2018-09-25T03:23:48.488Z,12.63
2018-09-25T03:26:21.871Z,12.75
2018-09-25T03:28:55.354Z,8.98
2018-09-25T03:31:28.934Z,15.00
2018-09-25T03:34:02.556Z,16.77
2018-09-25T03:36:35.970Z,13.38
2018-09-25T03:39:12.407Z,11.83
2018-09-25T03:41:45.892Z,9.93
2018-09-25T03:44:19.606Z,13.60
2018-09-25T03:46:53.083Z,11.70
2018-09-25T03:49:27.084Z,11.30
2018-09-25T03:52:00.588Z,14.03
2018-09-25T03:54:34.152Z,8.40
2018-09-25T03:57:07.813Z,9.78
2018-09-25T03:59:41.330Z,6.42
2018-09-25T04:02:14.913Z,16.55
2018-09-25T04:04:48.449Z,8.20
2018-09-25T04:07:22.070Z,17.37
2018-09-25T04:09:55.622Z,8.80
2018-09-25T04:12:29.194Z,7.62
2018-09-25T04:15:02.939Z,8.13
2018-09-25T04:17:36.514Z,8.88
2018-09-25T04:20:10.088Z,14.83
2018-09-25T04:22:43.562Z,11.20
2018-09-25T04:25:17.096Z,8.65
2018-09-25T04:27:50.720Z,16.02
2018-09-25T04:30:24.357Z,9.53
2018-09-25T04:32:58.020Z,8.35
2018-09-25T04:35:31.528Z,8.73
2018-09-25T04:38:05.072Z,7.92
2018-09-25T04:40:38.709Z,5.60
2018-09-25T04:43:12.144Z,10.45
2018-09-25T04:45:45.576Z,5.12
2018-09-25T04:48:19.144Z,9.58
2018-09-25T04:50:52.874Z,7.78
2018-09-25T04:53:26.568Z,4.72
2018-09-25T04:56:00.334Z,7.55
2018-09-25T04:58:33.804Z,7.65
2018-09-25T05:01:07.332Z,9.08
2018-09-25T05:03:40.933Z,7.35
2018-09-25T05:06:14.438Z,4.70
2018-09-25T05:08:47.939Z,5.80
2018-09-25T05:11:22.223Z,11.08
2018-09-25T05:13:55.775Z,7.17
2018-09-25T05:16:29.250Z,12.25
2018-09-25T05:19:02.766Z,8.78
2018-09-25T05:21:36.425Z,11.08
2018-09-25T05:24:09.991Z,8.08
2018-09-25T05:26:44.142Z,6.70
2018-09-25T05:29:17.806Z,10.28
2018-09-25T05:31:51.424Z,15.43
2018-09-25T05:34:25.003Z,13.08
2018-09-25T05:36:58.506Z,9.83
2018-09-25T05:39:31.984Z,8.93
2018-09-25T05:42:07.164Z,9.20
2018-09-25T05:44:40.748Z,12.45
2018-09-25T05:47:14.234Z,10.90
2018-09-25T05:49:49.286Z,5.72
2018-09-25T05:52:23.060Z,8.85
2018-09-25T05:54:56.604Z,11.20
2018-09-25T05:57:30.310Z,8.78
2018-09-25T06:00:10.042Z,8.20
2018-09-25T06:02:43.692Z,4.78
2018-09-25T06:05:18.262Z,13.58
2018-09-25T06:07:52.243Z,14.10
2018-09-25T06:10:25.873Z,9.83
2018-09-25T06:12:59.421Z,6.47
2018-09-25T06:15:33.398Z,6.47
2018-09-25T06:18:07.110Z,10.35
2018-09-25T06:20:40.792Z,10.38
2018-09-25T06:23:14.609Z,11.48
2018-09-25T06:25:48.663Z,10.58
2018-09-25T06:28:22.122Z,21.30
2018-09-25T06:30:55.603Z,10.10
2018-09-25T06:33:29.177Z,16.65
2018-09-25T06:36:02.651Z,15.13
2018-09-25T06:38:36.175Z,13.30
2018-09-25T06:41:09.891Z,9.53
2018-09-25T06:43:43.471Z,12.53
2018-09-25T06:46:17.011Z,10.27
2018-09-25T06:48:50.747Z,9.53
2018-09-25T06:51:24.305Z,13.40
2018-09-25T07:01:07.485Z,14.60
2018-09-25T07:03:41.220Z,11.55
2018-09-25T07:06:15.329Z,6.00
2018-09-25T07:08:49.305Z,8.23
2018-09-25T07:11:22.799Z,11.70
2018-09-25T07:13:56.454Z,8.87
2018-09-25T07:16:30.088Z,9.27
2018-09-25T07:19:03.941Z,9.53
2018-09-25T07:21:37.540Z,6.00
2018-09-25T07:24:12.144Z,8.67
2018-09-25T07:26:45.640Z,7.00
2018-09-25T07:29:19.454Z,10.17
2018-09-25T07:31:53.014Z,13.60
2018-09-25T07:34:26.721Z,8.57
2018-09-25T07:37:00.333Z,11.53
2018-09-25T07:39:33.895Z,12.63
2018-09-25T07:42:07.597Z,10.87
2018-09-25T07:44:42.001Z,10.13
2018-09-25T07:47:15.678Z,11.97
2018-09-25T07:49:49.514Z,10.83
2018-09-25T07:52:23.056Z,7.13
2018-09-25T07:54:56.616Z,10.13
2018-09-25T07:57:30.272Z,10.13
2018-09-25T08:00:03.756Z,11.70
2018-09-25T08:02:37.523Z,14.20
2018-09-25T08:05:11.427Z,5.90
2018-09-25T08:07:45.106Z,11.23
2018-09-25T08:10:18.727Z,18.40
2018-09-25T08:12:52.204Z,8.93
2018-09-25T08:15:25.762Z,13.93
2018-09-25T08:17:59.403Z,4.83
2018-09-25T08:20:33.350Z,7.03
2018-09-25T08:23:07.118Z,11.90
2018-09-25T08:25:40.624Z,11.20
2018-09-25T08:28:14.186Z,8.90
2018-09-25T08:30:47.850Z,7.47
2018-09-25T08:33:21.415Z,11.67
2018-09-25T08:35:55.029Z,10.37
2018-09-25T08:38:28.697Z,5.93
2018-09-25T08:41:03.189Z,9.00
2018-09-25T08:43:36.680Z,12.63
2018-09-25T08:46:10.274Z,8.43
2018-09-25T08:48:43.853Z,6.90
2018-09-25T08:51:17.762Z,7.70
2018-09-25T08:53:51.312Z,8.20
2018-09-25T08:56:24.837Z,6.87
2018-09-25T08:58:58.380Z,3.57
2018-09-25T09:01:32.070Z,6.57
2018-09-25T09:04:05.562Z,9.17
2018-09-25T09:06:39.088Z,8.77
2018-09-25T09:09:14.536Z,10.57
2018-09-25T09:11:48.864Z,10.87
2018-09-25T09:14:22.422Z,8.90
2018-09-25T09:16:56.196Z,11.40
2018-09-25T09:19:29.614Z,6.33
2018-09-25T09:22:03.073Z,9.77
2018-09-25T09:24:36.596Z,8.80
2018-09-25T09:27:10.278Z,5.17
2018-09-25T09:29:43.803Z,5.77
2018-09-25T09:32:17.524Z,11.83
2018-09-25T09:34:52.304Z,7.00
2018-09-25T09:37:26.690Z,9.57
2018-09-25T09:40:00.411Z,8.53
2018-09-25T09:42:34.131Z,10.30
2018-09-25T09:45:07.622Z,3.60
2018-09-25T09:47:41.298Z,5.97
2018-09-25T09:50:15.077Z,6.50
2018-09-25T09:52:48.709Z,5.47
2018-09-25T09:55:22.490Z,8.27
2018-09-25T09:57:56.402Z,6.60
2018-09-25T10:00:30.028Z,5.70
2018-09-25T10:03:04.341Z,10.60
2018-09-25T10:05:37.786Z,4.03
2018-09-25T10:08:11.316Z,5.73
2018-09-25T10:10:44.963Z,6.57
2018-09-25T10:13:19.251Z,4.03
2018-09-25T10:15:52.980Z,4.57
2018-09-25T10:18:26.553Z,7.03
2018-09-25T10:21:00.298Z,8.57
2018-09-25T10:23:34.000Z,7.20
2018-09-25T10:26:07.462Z,6.37
2018-09-25T10:28:40.987Z,6.77
2018-09-25T10:31:14.342Z,5.37
2018-09-25T10:33:47.961Z,6.70
2018-09-25T10:36:21.567Z,3.87
2018-09-25T10:38:55.102Z,9.50
2018-09-25T10:41:28.782Z,5.70
2018-09-25T10:44:02.393Z,7.47
2018-09-25T10:46:36.157Z,5.73
2018-09-25T10:49:09.772Z,4.67
2018-09-25T10:51:43.605Z,8.93
2018-09-25T10:54:21.537Z,5.33
2018-09-25T10:56:55.183Z,4.70
2018-09-25T10:59:29.385Z,2.80
2018-09-25T11:02:02.996Z,5.43
2018-09-25T11:04:36.596Z,6.43
2018-09-25T11:07:10.013Z,5.60
2018-09-25T11:09:43.612Z,6.30
2018-09-25T11:12:17.046Z,5.23
2018-09-25T11:14:50.542Z,5.47
2018-09-25T11:17:24.134Z,7.13
2018-09-25T11:19:57.687Z,4.17
2018-09-25T11:22:31.574Z,8.23
2018-09-25T11:25:05.245Z,5.83
2018-09-25T11:27:38.814Z,6.50
2018-09-25T11:30:12.717Z,8.37
2018-09-25T11:35:28.224Z,7.83
2018-09-25T11:38:02.282Z,5.30
2018-09-25T11:40:35.928Z,8.40
2018-09-25T11:43:09.731Z,4.13
2018-09-25T11:45:43.220Z,4.17
2018-09-25T11:48:16.870Z,6.50
2018-09-25T11:50:50.747Z,5.93
2018-09-25T11:53:24.536Z,5.30
2018-09-25T11:55:58.088Z,8.13
2018-09-25T11:58:31.810Z,4.17
2018-09-25T12:01:05.475Z,3.67
2018-09-25T12:03:39.212Z,7.40
2018-09-25T12:06:12.918Z,3.70
2018-09-25T12:08:46.688Z,3.27
2018-09-25T12:11:20.269Z,5.33
2018-09-25T12:13:54.708Z,3.53
2018-09-25T12:16:28.328Z,3.93
2018-09-25T12:19:02.020Z,5.67
2018-09-25T12:21:35.871Z,5.20
2018-09-25T12:24:09.391Z,4.67
2018-09-25T12:26:45.819Z,4.83
2018-09-25T12:29:20.596Z,3.83
2018-09-25T12:31:54.911Z,9.10
2018-09-25T12:34:29.457Z,3.27
2018-09-25T12:37:03.638Z,3.57
2018-09-25T12:39:37.134Z,5.90
2018-09-25T12:42:10.748Z,5.80
2018-09-25T12:44:45.087Z,5.53
2018-09-25T12:47:19.062Z,4.60
2018-09-25T12:49:52.646Z,3.40
2018-09-25T12:52:26.151Z,3.67
2018-09-25T12:54:59.787Z,5.87
2018-09-25T12:57:33.271Z,5.23
2018-09-25T13:00:06.822Z,4.63
2018-09-25T13:02:40.396Z,5.83
2018-09-25T13:05:14.148Z,4.43
2018-09-25T13:07:47.804Z,3.90
2018-09-25T13:10:21.475Z,6.10
2018-09-25T13:12:55.898Z,7.97
2018-09-25T13:15:31.315Z,2.80
2018-09-25T13:18:08.834Z,6.07
2018-09-25T13:20:42.336Z,2.07
2018-09-25T13:23:15.869Z,4.57
2018-09-25T13:25:49.378Z,5.77
2018-09-25T13:28:23.063Z,3.53
2018-09-25T13:30:56.678Z,4.17
2018-09-25T13:33:30.235Z,7.67
2018-09-25T13:36:04.796Z,5.70
2018-09-25T13:38:38.422Z,3.07
2018-09-25T13:41:12.049Z,5.00
2018-09-25T13:43:45.573Z,3.80
2018-09-25T13:46:19.922Z,3.37
2018-09-25T13:48:53.426Z,2.20
2018-09-25T13:51:27.185Z,4.33
2018-09-25T14:01:10.709Z,7.23
2018-09-25T14:03:44.433Z,3.50
2018-09-25T14:06:17.998Z,6.57
2018-09-25T14:08:51.465Z,4.40
2018-09-25T14:11:25.103Z,2.93
2018-09-25T14:13:58.574Z,4.67
2018-09-25T14:16:32.153Z,6.50
2018-09-25T14:19:05.816Z,5.47
2018-09-25T14:21:39.474Z,4.67
2018-09-25T14:24:13.222Z,3.43
2018-09-25T14:26:46.842Z,5.00
2018-09-25T14:29:20.903Z,10.10
2018-09-25T14:31:54.402Z,4.73
2018-09-25T14:34:27.869Z,3.47
2018-09-25T14:37:01.432Z,1.83
2018-09-25T14:39:34.968Z,4.70
2018-09-25T14:42:08.519Z,8.17
2018-09-25T14:44:42.003Z,4.80
2018-09-25T14:47:15.695Z,4.60
2018-09-25T14:49:49.870Z,3.63
2018-09-25T14:52:23.471Z,4.00
2018-09-25T14:54:57.226Z,4.53
2018-09-25T14:57:30.743Z,2.67
2018-09-25T15:00:04.325Z,5.93
2018-09-25T15:02:37.846Z,4.70
2018-09-25T15:05:11.463Z,5.00
2018-09-25T15:07:44.957Z,4.33
2018-09-25T15:10:18.575Z,5.23
2018-09-25T15:12:52.141Z,3.77
2018-09-25T15:15:26.240Z,6.20
2018-09-25T15:17:59.893Z,3.07
2018-09-25T15:20:33.437Z,5.03
2018-09-25T15:23:06.970Z,1.83
2018-09-25T15:25:40.508Z,2.10
2018-09-25T15:28:14.201Z,2.10
2018-09-25T15:30:53.993Z,2.60
2018-09-25T15:33:28.044Z,4.23
2018-09-25T15:36:01.612Z,5.47
2018-09-25T15:38:36.020Z,7.37
2018-09-25T15:41:09.552Z,2.80
2018-09-25T15:43:43.189Z,5.17
2018-09-25T15:46:16.887Z,4.37
2018-09-25T15:48:50.427Z,5.40
2018-09-25T15:51:25.321Z,5.37
2018-09-25T15:53:59.263Z,3.20
2018-09-25T15:56:32.819Z,4.07
2018-09-25T15:59:06.552Z,3.33
2018-09-25T16:01:40.223Z,3.43
2018-09-25T16:04:17.809Z,7.20
2018-09-25T16:06:51.468Z,6.97
2018-09-25T16:09:25.107Z,4.40
2018-09-25T16:11:59.553Z,6.37
2018-09-25T16:14:33.153Z,4.83
2018-09-25T16:17:06.821Z,3.90
2018-09-25T16:19:40.359Z,4.30
2018-09-25T16:22:14.567Z,5.23
2018-09-25T16:24:48.319Z,6.40
2018-09-25T16:27:22.603Z,3.93
2018-09-25T16:29:56.231Z,6.43
2018-09-25T16:32:30.005Z,4.50
2018-09-25T16:35:03.990Z,4.33
2018-09-25T16:37:37.519Z,5.27
2018-09-25T16:40:11.160Z,4.10
2018-09-25T16:42:44.721Z,5.93
2018-09-25T16:45:18.151Z,6.23
2018-09-25T16:47:51.672Z,8.80
2018-09-25T16:50:25.761Z,5.53
2018-09-25T16:53:00.006Z,11.33
2018-09-25T16:55:33.636Z,5.23
2018-09-25T16:58:07.394Z,7.33
2018-09-25T17:00:41.810Z,6.73
2018-09-25T17:03:16.065Z,10.67
2018-09-25T17:05:50.663Z,7.23
2018-09-25T17:08:24.425Z,9.10
2018-09-25T17:10:58.358Z,5.70
2018-09-25T17:13:32.453Z,7.00
2018-09-25T17:16:06.651Z,6.30
2018-09-25T17:18:40.325Z,4.47
2018-09-25T17:21:13.809Z,7.70
2018-09-25T17:23:47.982Z,17.33
2018-09-25T17:26:21.629Z,8.80
2018-09-25T17:28:55.365Z,7.20
2018-09-25T17:31:29.095Z,8.73
2018-09-25T17:34:02.776Z,8.83
2018-09-25T17:36:36.370Z,10.73
2018-09-25T17:39:12.894Z,12.67
2018-09-25T17:41:46.801Z,6.83
2018-09-25T17:44:20.293Z,8.70
2018-09-25T17:46:54.150Z,9.63
2018-09-25T17:49:27.847Z,9.70
2018-09-25T17:52:01.408Z,8.87
2018-09-25T17:54:34.953Z,11.83
2018-09-25T17:57:08.717Z,13.80
2018-09-25T17:59:42.552Z,9.17
2018-09-25T18:02:16.225Z,10.17
2018-09-25T18:04:50.032Z,11.53
2018-09-25T18:07:23.840Z,13.30
2018-09-25T18:09:57.640Z,12.53
2018-09-25T18:12:31.355Z,9.67
2018-09-25T18:15:05.017Z,13.93
2018-09-25T18:17:39.385Z,11.97
2018-09-25T18:20:13.084Z,10.97
2018-09-25T18:22:46.726Z,9.43
2018-09-25T18:25:20.382Z,9.17
2018-09-25T18:27:54.056Z,12.27
2018-09-25T18:30:27.786Z,12.43
2018-09-25T18:33:01.362Z,8.83
2018-09-25T18:35:35.094Z,15.30
2018-09-25T18:38:08.968Z,15.97
2018-09-25T18:40:42.960Z,17.00
2018-09-25T18:43:16.629Z,13.23
2018-09-25T18:45:50.534Z,12.03
2018-09-25T18:48:24.372Z,15.90
2018-09-25T18:51:02.254Z,21.60
2018-09-25T18:53:36.859Z,16.47
2018-09-25T18:56:10.478Z,19.43
2018-09-25T18:58:43.959Z,17.17
2018-09-25T19:01:17.455Z,19.77
2018-09-25T19:03:52.814Z,19.10
2018-09-25T19:06:28.226Z,15.83
2018-09-25T19:09:01.954Z,26.33
2018-09-25T19:11:35.471Z,22.20
2018-09-25T19:14:09.274Z,15.70
2018-09-25T19:16:42.967Z,25.80
2018-09-25T19:19:16.652Z,14.77
2018-09-25T19:21:50.486Z,11.20
2018-09-25T19:24:24.831Z,13.07
2018-09-25T19:26:58.662Z,12.07
2018-09-25T19:29:32.420Z,12.73
2018-09-25T19:32:06.112Z,10.30
2018-09-25T19:34:39.969Z,8.80
2018-09-25T19:37:13.870Z,9.40
2018-09-25T19:40:02.525Z,15.67
2018-09-25T19:42:36.286Z,18.93
2018-09-25T19:45:13.952Z,11.37
2018-09-25T19:47:47.533Z,13.20
2018-09-25T19:50:21.113Z,13.73
2018-09-25T19:52:57.012Z,14.17
2018-09-25T19:55:31.381Z,10.07
2018-09-25T19:58:04.972Z,10.40
2018-09-25T20:00:39.269Z,12.80
2018-09-25T20:03:13.020Z,13.80
2018-09-25T20:05:46.872Z,16.57
2018-09-25T20:08:20.494Z,18.50
2018-09-25T20:10:54.053Z,21.30
2018-09-25T20:13:28.074Z,20.57
2018-09-25T20:16:03.548Z,18.30
2018-09-25T20:18:37.305Z,15.97
2018-09-25T20:21:11.445Z,17.60
2018-09-25T20:23:45.898Z,24.27
2018-09-25T20:26:19.617Z,11.90
2018-09-25T20:28:53.325Z,16.47
2018-09-25T20:31:29.519Z,15.33
2018-09-25T20:34:03.317Z,10.73
2018-09-25T20:36:36.955Z,13.33
2018-09-25T20:39:11.414Z,16.93
2018-09-25T20:41:45.188Z,12.50
2018-09-25T20:44:19.014Z,12.90
2018-09-25T20:46:52.717Z,12.30
2018-09-25T20:49:26.444Z,13.87
2018-09-25T20:52:01.313Z,12.87
2018-09-25T20:54:34.930Z,13.23
2018-09-25T20:57:09.660Z,8.67
2018-09-25T20:59:43.372Z,11.93
2018-09-25T21:02:17.142Z,14.93
2018-09-25T21:04:51.585Z,14.83
2018-09-25T21:07:25.375Z,14.53
2018-09-25T21:09:58.918Z,13.73
2018-09-25T21:12:32.555Z,11.83
2018-09-25T21:15:07.469Z,14.47
2018-09-25T21:17:41.280Z,11.20
2018-09-25T21:20:14.890Z,12.47
2018-09-25T21:22:48.767Z,10.70
2018-09-25T21:25:22.328Z,19.47
2018-09-25T21:27:56.118Z,11.70
2018-09-25T21:30:29.655Z,12.03
2018-09-25T21:33:03.162Z,14.43
2018-09-25T21:35:36.725Z,14.03
2018-09-25T21:38:10.538Z,21.17
2018-09-25T21:40:44.009Z,10.97
2018-09-25T21:43:17.834Z,20.63
2018-09-25T21:45:51.468Z,9.87
2018-09-25T21:48:25.086Z,10.23
2018-09-25T21:50:58.919Z,11.80
2018-09-25T21:53:32.518Z,9.43
2018-09-25T21:56:06.066Z,6.97
2018-09-25T21:58:39.676Z,8.63
2018-09-25T22:01:13.393Z,9.43
2018-09-25T22:03:46.885Z,10.93
2018-09-25T22:06:20.375Z,7.83
2018-09-25T22:08:54.011Z,8.70
2018-09-25T22:11:27.542Z,7.70
2018-09-25T22:14:01.148Z,7.90
2018-09-25T22:16:34.573Z,9.67
2018-09-25T22:19:08.285Z,9.27
2018-09-25T22:21:41.912Z,11.70
2018-09-25T22:24:15.389Z,9.47
2018-09-25T22:26:48.878Z,7.80
2018-09-25T22:29:22.575Z,10.50
2018-09-25T22:31:56.086Z,8.20
2018-09-25T22:34:35.144Z,8.40
2018-09-25T22:37:09.024Z,6.17
2018-09-25T22:39:42.586Z,6.67
2018-09-25T22:42:16.174Z,9.67
2018-09-25T22:44:49.790Z,6.43
2018-09-25T22:47:26.032Z,6.30
2018-09-25T22:49:59.664Z,6.47
2018-09-25T22:52:33.311Z,8.23
2018-09-25T22:55:06.896Z,6.30
2018-09-25T22:57:40.393Z,8.27
2018-09-25T23:00:14.683Z,6.40
2018-09-25T23:02:48.190Z,9.17
2018-09-25T23:05:21.664Z,7.50
2018-09-25T23:07:55.334Z,10.00
2018-09-25T23:10:28.878Z,6.43
2018-09-25T23:13:02.479Z,8.43
2018-09-25T23:15:35.964Z,6.10
2018-09-25T23:18:09.511Z,10.57
2018-09-25T23:20:42.981Z,5.30
2018-09-25T23:23:16.647Z,13.13
2018-09-25T23:25:50.245Z,6.57
2018-09-25T23:28:23.975Z,13.20
2018-09-25T23:30:58.065Z,7.30
2018-09-25T23:33:32.005Z,11.27
2018-09-25T23:36:05.661Z,7.70
2018-09-25T23:38:39.329Z,9.13
2018-09-25T23:41:16.781Z,9.73
2018-09-25T23:44:04.988Z,7.70
2018-09-25T23:47:43.295Z,9.17
2018-09-25T23:50:21.855Z,6.03
2018-09-25T23:52:54.203Z,9.40
2018-09-25T23:55:27.607Z,10.87
2018-09-25T23:58:02.271Z,9.60
